createdAt,value
2018-06-12T00:01:05.850Z,26.37
2018-06-12T00:03:38.062Z,25.93
2018-06-12T00:06:09.546Z,24.60
2018-06-12T00:08:40.542Z,26.77
2018-06-12T00:11:11.911Z,27.03
2018-06-12T00:13:43.780Z,24.93
2018-06-12T00:16:14.716Z,26.53
2018-06-12T00:18:46.066Z,25.87
2018-06-12T00:21:17.928Z,26.10
2018-06-12T00:23:49.826Z,27.73
2018-06-12T00:26:21.276Z,27.57
2018-06-12T00:28:52.445Z,29.10
2018-06-12T00:31:24.548Z,27.97
2018-06-12T00:33:56.464Z,28.77
2018-06-12T00:36:27.846Z,27.53
2018-06-12T00:38:59.136Z,29.33
2018-06-12T00:41:31.220Z,30.53
2018-06-12T00:44:03.118Z,29.93
2018-06-12T00:46:34.582Z,32.97
2018-06-12T00:49:05.876Z,31.10
2018-06-12T00:51:37.450Z,30.23
2018-06-12T00:54:09.321Z,32.33
2018-06-12T00:56:52.650Z,31.90
2018-06-12T00:59:24.252Z,31.50
2018-06-12T01:01:55.649Z,31.37
2018-06-12T01:04:27.199Z,32.57
2018-06-12T01:06:58.138Z,32.17
2018-06-12T01:09:29.903Z,33.40
2018-06-12T01:12:01.774Z,31.10
2018-06-12T01:14:33.314Z,34.27
2018-06-12T01:17:04.772Z,35.67
2018-06-12T01:19:36.747Z,34.50
2018-06-12T01:22:08.672Z,33.40
2018-06-12T01:24:39.850Z,34.33
2018-06-12T01:27:11.114Z,34.33
2018-06-12T01:29:43.092Z,35.43
2018-06-12T01:32:14.981Z,32.60
2018-06-12T01:34:46.538Z,33.43
2018-06-12T01:37:18.445Z,34.13
2018-06-12T01:39:50.484Z,35.73
2018-06-12T01:42:21.484Z,34.77
2018-06-12T01:44:52.832Z,33.97
2018-06-12T01:47:24.597Z,33.47
2018-06-12T01:49:56.594Z,32.70
2018-06-12T01:52:27.903Z,34.20
2018-06-12T01:54:58.950Z,31.50
2018-06-12T01:57:31.332Z,29.37
2018-06-12T02:00:03.214Z,30.70
2018-06-12T02:02:34.630Z,30.33
2018-06-12T02:05:06.012Z,29.53
2018-06-12T02:07:37.902Z,29.87
2018-06-12T02:10:09.594Z,28.53
2018-06-12T02:12:40.544Z,29.07
2018-06-12T02:15:11.952Z,30.17
2018-06-12T02:17:43.841Z,30.27
2018-06-12T02:20:15.152Z,29.47
2018-06-12T02:22:46.364Z,30.20
2018-06-12T02:25:18.064Z,31.23
2018-06-12T02:27:50.123Z,30.50
2018-06-12T02:30:21.475Z,30.17
2018-06-12T02:32:52.836Z,30.33
2018-06-12T02:35:24.431Z,31.90
2018-06-12T02:37:56.342Z,30.53
2018-06-12T02:40:27.836Z,32.63
2018-06-12T02:42:58.848Z,33.57
2018-06-12T02:45:31.041Z,31.67
2018-06-12T02:48:03.122Z,33.17
2018-06-12T02:50:34.308Z,32.93
2018-06-12T02:53:05.423Z,34.27
2018-06-12T02:55:36.804Z,35.47
2018-06-12T02:58:08.734Z,34.37
2018-06-12T03:00:40.298Z,32.80
2018-06-12T03:03:11.695Z,33.20
2018-06-12T03:05:43.699Z,31.23
2018-06-12T03:08:15.584Z,31.07
2018-06-12T03:10:46.806Z,30.50
2018-06-12T03:13:18.834Z,30.30
2018-06-12T03:15:50.907Z,28.50
2018-06-12T03:18:22.140Z,28.80
2018-06-12T03:20:53.348Z,29.13
2018-06-12T03:23:25.264Z,31.07
2018-06-12T03:26:01.194Z,29.87
2018-06-12T03:28:32.626Z,29.70
2018-06-12T03:31:03.861Z,29.97
2018-06-12T03:33:35.889Z,31.13
2018-06-12T03:36:07.964Z,30.40
2018-06-12T03:38:39.102Z,28.70
2018-06-12T03:41:10.394Z,28.83
2018-06-12T03:43:42.354Z,29.10
2018-06-12T03:46:14.600Z,30.27
2018-06-12T03:48:46.138Z,31.33
2018-06-12T03:51:18.157Z,29.20
2018-06-12T03:53:50.260Z,27.20
2018-06-12T03:56:21.819Z,28.87
2018-06-12T03:58:53.198Z,27.70
2018-06-12T04:01:25.298Z,28.67
2018-06-12T04:03:57.396Z,26.77
2018-06-12T04:06:28.196Z,27.23
2018-06-12T04:08:59.999Z,27.60
2018-06-12T04:11:31.800Z,26.03
2018-06-12T04:14:04.496Z,25.87
2018-06-12T04:16:37.505Z,27.13
2018-06-12T04:19:08.986Z,25.60
2018-06-12T04:21:40.924Z,26.00
2018-06-12T04:24:12.334Z,26.10
2018-06-12T04:26:44.040Z,26.40
2018-06-12T04:29:15.973Z,25.47
2018-06-12T04:31:48.674Z,26.07
2018-06-12T04:34:20.048Z,26.33
2018-06-12T04:36:51.512Z,24.53
2018-06-12T04:39:23.647Z,27.00
2018-06-12T04:41:55.840Z,26.43
2018-06-12T04:44:27.558Z,25.67
2018-06-12T04:46:59.061Z,24.37
2018-06-12T04:49:31.588Z,24.87
2018-06-12T04:52:05.596Z,24.90
2018-06-12T04:54:37.065Z,25.57
2018-06-12T04:57:08.714Z,21.23
2018-06-12T04:59:40.558Z,19.23
2018-06-12T05:02:12.421Z,19.43
2018-06-12T05:04:43.842Z,17.77
2018-06-12T05:07:15.943Z,19.30
2018-06-12T05:09:47.984Z,22.23
2018-06-12T05:12:19.478Z,19.27
2018-06-12T05:14:50.858Z,19.03
2018-06-12T05:17:23.186Z,17.43
2018-06-12T05:19:56.502Z,17.37
2018-06-12T05:22:28.106Z,15.87
2018-06-12T05:24:59.496Z,16.37
2018-06-12T05:27:31.918Z,16.40
2018-06-12T05:30:04.250Z,16.23
2018-06-12T05:32:35.962Z,15.50
2018-06-12T05:35:09.416Z,15.60
2018-06-12T05:37:41.862Z,15.50
2018-06-12T05:40:13.554Z,12.33
2018-06-12T05:42:45.082Z,11.23
2018-06-12T05:45:17.511Z,11.97
2018-06-12T05:47:49.802Z,10.70
2018-06-12T05:50:21.552Z,10.70
2018-06-12T05:52:53.114Z,10.30
2018-06-12T05:55:25.408Z,10.27
2018-06-12T05:57:58.164Z,10.07
2018-06-12T06:00:30.687Z,9.80
2018-06-12T06:03:02.689Z,10.20
2018-06-12T06:05:34.818Z,10.03
2018-06-12T06:08:07.176Z,10.17
2018-06-12T06:10:38.991Z,9.83
2018-06-12T06:13:10.529Z,8.90
2018-06-12T06:15:42.605Z,8.80
2018-06-12T06:18:14.595Z,8.20
2018-06-12T06:20:46.954Z,8.77
2018-06-12T06:23:19.225Z,8.37
2018-06-12T06:25:51.435Z,8.27
2018-06-12T06:28:23.035Z,8.10
2018-06-12T06:30:54.676Z,9.00
2018-06-12T06:33:27.028Z,8.83
2018-06-12T06:35:59.028Z,9.03
2018-06-12T06:38:30.484Z,8.83
2018-06-12T06:41:02.230Z,8.73
2018-06-12T06:43:34.268Z,9.10
2018-06-12T06:46:07.163Z,9.40
2018-06-12T06:48:38.837Z,9.27
2018-06-12T06:51:10.149Z,9.80
2018-06-12T06:53:42.403Z,9.90
2018-06-12T06:56:14.725Z,9.43
2018-06-12T06:58:46.368Z,9.63
2018-06-12T07:01:18.916Z,9.47
2018-06-12T07:03:50.906Z,9.63
2018-06-12T07:06:22.148Z,9.77
2018-06-12T07:08:54.971Z,9.53
2018-06-12T07:11:29.980Z,9.77
2018-06-12T07:14:02.966Z,9.03
2018-06-12T07:16:35.441Z,10.03
2018-06-12T07:19:07.077Z,9.83
2018-06-12T07:21:38.979Z,9.90
2018-06-12T07:24:11.019Z,8.87
2018-06-12T07:26:43.568Z,10.53
2018-06-12T07:29:15.769Z,9.50
2018-06-12T07:31:49.262Z,10.63
2018-06-12T07:34:20.941Z,10.10
2018-06-12T07:36:52.464Z,10.67
2018-06-12T07:39:24.678Z,10.87
2018-06-12T07:41:56.826Z,9.80
2018-06-12T07:44:28.928Z,10.80
2018-06-12T07:47:00.293Z,11.37
2018-06-12T07:49:32.165Z,11.07
2018-06-12T07:52:04.237Z,10.50
2018-06-12T07:54:35.898Z,11.07
2018-06-12T07:57:07.870Z,12.57
2018-06-12T07:59:40.174Z,11.57
2018-06-12T08:02:11.894Z,11.50
2018-06-12T08:04:43.366Z,11.43
2018-06-12T08:07:16.943Z,12.00
2018-06-12T08:09:51.013Z,11.55
2018-06-12T08:12:23.129Z,11.93
2018-06-12T08:14:55.325Z,11.63
2018-06-12T08:17:27.946Z,11.70
2018-06-12T08:20:00.607Z,12.00
2018-06-12T08:22:32.603Z,13.32
2018-06-12T08:25:04.905Z,12.70
2018-06-12T08:27:37.941Z,12.98
2018-06-12T08:30:12.087Z,12.75
2018-06-12T08:32:44.402Z,12.82
2018-06-12T08:35:17.127Z,13.28
2018-06-12T08:37:49.877Z,14.33
2018-06-12T08:40:22.363Z,14.75
2018-06-12T08:42:54.517Z,14.55
2018-06-12T08:45:26.539Z,14.87
2018-06-12T08:47:59.073Z,15.53
2018-06-12T08:50:30.730Z,15.30
2018-06-12T08:53:02.189Z,15.33
2018-06-12T08:55:34.493Z,15.23
2018-06-12T08:58:06.814Z,15.67
2018-06-12T09:00:38.356Z,15.13
2018-06-12T09:03:09.972Z,14.70
2018-06-12T09:05:43.245Z,15.60
2018-06-12T09:08:15.439Z,15.27
2018-06-12T09:10:47.579Z,14.15
2018-06-12T09:13:20.373Z,13.95
2018-06-12T09:15:53.403Z,14.03
2018-06-12T09:18:25.814Z,14.80
2018-06-12T09:21:00.511Z,15.27
2018-06-12T09:23:33.356Z,15.10
2018-06-12T09:26:06.176Z,15.43
2018-06-12T09:28:37.793Z,15.80
2018-06-12T09:31:09.231Z,17.07
2018-06-12T09:33:41.467Z,16.60
2018-06-12T09:36:18.332Z,15.80
2018-06-12T09:38:51.499Z,16.32
2018-06-12T09:41:24.074Z,17.17
2018-06-12T09:43:56.732Z,15.88
2018-06-12T09:46:28.800Z,15.03
2018-06-12T09:49:00.922Z,15.68
2018-06-12T09:51:34.302Z,16.30
2018-06-12T09:54:07.074Z,15.60
2018-06-12T09:56:38.883Z,14.83
2018-06-12T09:59:10.914Z,15.28
2018-06-12T10:01:47.679Z,16.23
2018-06-12T10:04:19.788Z,16.42
2018-06-12T10:06:51.952Z,16.05
2018-06-12T10:09:24.551Z,17.30
2018-06-12T10:11:57.265Z,16.60
2018-06-12T10:14:29.374Z,15.18
2018-06-12T10:17:01.423Z,16.00
2018-06-12T10:19:36.465Z,15.85
2018-06-12T10:22:09.125Z,15.30
2018-06-12T10:24:40.931Z,14.75
2018-06-12T10:27:13.089Z,14.70
2018-06-12T10:29:45.965Z,14.75
2018-06-12T10:32:18.541Z,14.95
2018-06-12T10:34:51.602Z,14.63
2018-06-12T10:37:25.402Z,14.90
2018-06-12T10:39:58.495Z,14.70
2018-06-12T10:42:30.696Z,14.83
2018-06-12T10:45:02.998Z,14.25
2018-06-12T10:47:35.659Z,16.55
2018-06-12T10:50:10.277Z,15.00
2018-06-12T10:52:45.213Z,15.32
2018-06-12T10:55:18.469Z,15.20
2018-06-12T10:57:51.790Z,15.08
2018-06-12T11:00:23.931Z,14.18
2018-06-12T11:02:56.511Z,14.68
2018-06-12T11:05:29.312Z,13.60
2018-06-12T11:08:02.598Z,13.90
2018-06-12T11:10:34.651Z,15.30
2018-06-12T11:13:06.649Z,13.48
2018-06-12T11:15:42.121Z,13.85
2018-06-12T11:18:14.754Z,14.50
2018-06-12T11:20:46.879Z,14.05
2018-06-12T11:23:19.439Z,13.30
2018-06-12T11:25:51.955Z,14.00
2018-06-12T11:28:24.246Z,13.85
2018-06-12T11:30:56.544Z,14.47
2018-06-12T11:33:29.212Z,15.30
2018-06-12T11:36:02.371Z,14.30
2018-06-12T11:38:34.456Z,14.80
2018-06-12T11:41:06.654Z,15.25
2018-06-12T11:43:39.481Z,15.10
2018-06-12T11:46:11.843Z,13.65
2018-06-12T11:48:43.797Z,13.95
2018-06-12T11:51:16.608Z,13.98
2018-06-12T11:53:50.128Z,13.55
2018-06-12T11:56:22.213Z,13.45
2018-06-12T11:58:54.195Z,13.90
2018-06-12T12:01:26.244Z,13.50
2018-06-12T12:03:58.913Z,13.72
2018-06-12T12:06:30.885Z,12.75
2018-06-12T12:09:03.358Z,13.80
2018-06-12T12:11:36.241Z,14.25
2018-06-12T12:14:09.568Z,13.32
2018-06-12T12:16:41.673Z,12.47
2018-06-12T12:19:13.758Z,12.37
2018-06-12T12:21:46.688Z,12.53
2018-06-12T12:24:18.706Z,13.90
2018-06-12T12:26:50.642Z,12.18
2018-06-12T12:29:23.392Z,13.55
2018-06-12T12:31:56.065Z,14.30
2018-06-12T12:34:28.106Z,13.48
2018-06-12T12:37:01.514Z,13.72
2018-06-12T12:39:34.357Z,12.70
2018-06-12T12:42:07.046Z,12.88
2018-06-12T12:44:40.023Z,13.98
2018-06-12T12:47:12.014Z,14.05
2018-06-12T12:49:45.971Z,13.32
2018-06-12T12:52:18.260Z,13.50
2018-06-12T12:54:50.432Z,13.00
2018-06-12T12:57:23.162Z,12.68
2018-06-12T12:59:56.785Z,14.58
2018-06-12T13:02:28.781Z,14.33
2018-06-12T13:05:00.860Z,14.38
2018-06-12T13:07:33.831Z,14.03
2018-06-12T13:10:07.057Z,15.32
2018-06-12T13:12:39.102Z,14.90
2018-06-12T13:15:11.174Z,13.20
2018-06-12T13:17:43.708Z,13.95
2018-06-12T13:20:15.803Z,13.32
2018-06-12T13:22:48.543Z,12.13
2018-06-12T13:25:21.047Z,12.35
2018-06-12T13:27:53.944Z,13.28
2018-06-12T13:30:25.959Z,12.53
2018-06-12T13:32:58.171Z,12.98
2018-06-12T13:35:31.939Z,10.85
2018-06-12T13:38:05.061Z,10.88
2018-06-12T13:40:36.989Z,9.73
2018-06-12T13:43:09.067Z,10.90
2018-06-12T13:45:41.914Z,10.53
2018-06-12T13:48:14.919Z,10.15
2018-06-12T13:50:47.050Z,10.40
2018-06-12T13:53:20.037Z,11.63
2018-06-12T13:55:52.683Z,12.50
2018-06-12T13:58:24.840Z,12.60
2018-06-12T14:00:57.028Z,12.20
2018-06-12T14:03:29.834Z,13.65
2018-06-12T14:06:03.104Z,14.15
2018-06-12T14:08:35.027Z,14.53
2018-06-12T14:11:07.187Z,13.95
2018-06-12T14:13:39.999Z,13.93
2018-06-12T14:16:23.332Z,14.80
2018-06-12T14:18:55.283Z,13.50
2018-06-12T14:21:28.086Z,13.60
2018-06-12T14:24:00.688Z,14.33
2018-06-12T14:26:32.994Z,14.87
2018-06-12T14:29:05.408Z,14.33
2018-06-12T14:31:38.472Z,13.30
2018-06-12T14:34:11.232Z,12.45
2018-06-12T14:36:43.286Z,12.78
2018-06-12T14:39:15.904Z,12.80
2018-06-12T14:41:49.184Z,11.50
2018-06-12T14:44:21.076Z,11.63
2018-06-12T14:46:54.200Z,9.60
2018-06-12T14:49:27.262Z,9.70
2018-06-12T14:51:59.902Z,9.98
2018-06-12T14:54:33.078Z,10.55
2018-06-12T14:57:05.406Z,10.98
2018-06-12T14:59:38.658Z,11.30
2018-06-12T15:02:11.717Z,11.70
2018-06-12T15:04:43.632Z,11.48
2018-06-12T15:07:15.838Z,11.38
2018-06-12T15:09:48.450Z,11.73
2018-06-12T15:12:20.488Z,11.38
2018-06-12T15:14:52.534Z,11.43
2018-06-12T15:17:25.257Z,11.90
2018-06-12T15:19:58.074Z,11.95
2018-06-12T15:22:30.244Z,12.00
2018-06-12T15:25:02.636Z,11.43
2018-06-12T15:27:35.264Z,12.20
2018-06-12T15:30:07.920Z,11.55
2018-06-12T15:32:41.970Z,12.98
2018-06-12T15:35:14.275Z,12.68
2018-06-12T15:37:49.424Z,12.73
2018-06-12T15:40:21.448Z,12.73
2018-06-12T15:42:53.210Z,13.43
2018-06-12T15:45:25.786Z,14.58
2018-06-12T15:47:58.616Z,14.20
2018-06-12T15:50:30.740Z,13.93
2018-06-12T15:53:03.355Z,14.20
2018-06-12T15:55:36.308Z,14.60
2018-06-12T15:58:09.112Z,14.00
2018-06-12T16:00:41.532Z,12.60
2018-06-12T16:03:13.789Z,13.22
2018-06-12T16:05:46.786Z,12.63
2018-06-12T16:08:19.392Z,12.40
2018-06-12T16:10:51.334Z,10.93
2018-06-12T16:13:24.666Z,10.95
2018-06-12T16:16:00.190Z,10.05
2018-06-12T16:18:32.162Z,9.68
2018-06-12T16:21:05.809Z,7.97
2018-06-12T16:23:39.063Z,7.87
2018-06-12T16:26:11.430Z,7.80
2018-06-12T16:28:43.390Z,8.95
2018-06-12T16:31:15.378Z,8.08
2018-06-12T16:33:48.060Z,7.42
2018-06-12T16:36:20.061Z,7.45
2018-06-12T16:38:52.570Z,7.53
2018-06-12T16:41:25.405Z,7.50
2018-06-12T16:43:58.232Z,7.12
2018-06-12T16:46:30.201Z,7.12
2018-06-12T16:49:02.300Z,6.80
2018-06-12T16:51:34.990Z,7.47
2018-06-12T16:54:07.696Z,6.95
2018-06-12T16:56:39.592Z,6.70
2018-06-12T16:59:11.947Z,6.67
2018-06-12T17:01:44.708Z,6.33
2018-06-12T17:04:16.832Z,6.58
2018-06-12T17:06:48.806Z,5.80
2018-06-12T17:09:21.568Z,5.97
2018-06-12T17:11:55.154Z,5.33
2018-06-12T17:14:27.259Z,6.03
2018-06-12T17:16:59.470Z,5.72
2018-06-12T17:19:31.929Z,6.30
2018-06-12T17:22:04.647Z,6.00
2018-06-12T17:24:36.789Z,5.78
2018-06-12T17:27:08.668Z,5.62
2018-06-12T17:29:41.480Z,5.85
2018-06-12T17:32:14.520Z,5.42
2018-06-12T17:34:46.916Z,4.97
2018-06-12T17:37:19.096Z,5.15
2018-06-12T17:39:51.783Z,5.25
2018-06-12T17:42:23.920Z,5.53
2018-06-12T17:44:55.959Z,4.97
2018-06-12T17:47:28.026Z,4.72
2018-06-12T17:50:01.071Z,5.12
2018-06-12T17:52:33.098Z,4.50
2018-06-12T17:55:05.111Z,4.50
2018-06-12T17:57:37.771Z,5.05
2018-06-12T18:00:10.040Z,4.08
2018-06-12T18:02:41.990Z,5.00
2018-06-12T18:05:14.391Z,4.87
2018-06-12T18:07:47.660Z,4.70
2018-06-12T18:10:19.670Z,4.67
2018-06-12T18:12:51.201Z,5.20
2018-06-12T18:15:23.398Z,5.20
2018-06-12T18:17:56.413Z,4.53
2018-06-12T18:20:28.560Z,4.70
2018-06-12T18:23:00.028Z,4.20
2018-06-12T18:25:32.100Z,5.13
2018-06-12T18:28:04.270Z,5.20
2018-06-12T18:30:41.876Z,5.33
2018-06-12T18:33:13.242Z,5.20
2018-06-12T18:35:46.054Z,5.00
2018-06-12T18:38:17.467Z,4.83
2018-06-12T18:40:48.892Z,4.83
2018-06-12T18:43:21.508Z,5.00
2018-06-12T18:45:55.525Z,5.10
2018-06-12T18:48:26.813Z,4.60
2018-06-12T18:50:58.481Z,5.40
2018-06-12T18:53:30.650Z,5.40
2018-06-12T18:56:03.128Z,5.10
2018-06-12T18:58:36.772Z,5.43
2018-06-12T19:01:08.230Z,5.33
2018-06-12T19:03:43.102Z,5.50
2018-06-12T19:06:15.173Z,4.90
2018-06-12T19:08:47.917Z,5.20
2018-06-12T19:11:26.854Z,4.70
2018-06-12T19:13:59.268Z,4.93
2018-06-12T19:16:31.628Z,5.27
2018-06-12T19:19:03.920Z,4.83
2018-06-12T19:21:35.392Z,5.13
2018-06-12T19:24:07.562Z,5.20
2018-06-12T19:26:39.780Z,4.97
2018-06-12T19:29:11.184Z,5.10
2018-06-12T19:31:43.354Z,4.90
2018-06-12T19:34:16.483Z,4.53
2018-06-12T19:36:47.816Z,4.87
2018-06-12T19:39:19.692Z,5.00
2018-06-12T19:41:51.888Z,5.13
2018-06-12T19:44:23.770Z,5.00
2018-06-12T19:46:55.374Z,4.63
2018-06-12T19:49:27.455Z,4.53
2018-06-12T19:51:59.798Z,4.63
2018-06-12T19:54:31.283Z,4.87
2018-06-12T19:57:02.759Z,4.90
2018-06-12T19:59:36.098Z,4.87
2018-06-12T20:02:08.748Z,4.50
2018-06-12T20:04:40.202Z,4.57
2018-06-12T20:07:12.746Z,5.13
2018-06-12T20:09:45.879Z,5.20
2018-06-12T20:12:18.321Z,5.30
2018-06-12T20:14:50.880Z,5.60
2018-06-12T20:17:22.934Z,5.33
2018-06-12T20:19:54.928Z,6.03
2018-06-12T20:22:27.525Z,5.97
2018-06-12T20:24:59.757Z,5.50
2018-06-12T20:27:32.201Z,5.50
2018-06-12T20:30:04.328Z,6.13
2018-06-12T20:32:36.933Z,5.23
2018-06-12T20:35:10.126Z,5.20
2018-06-12T20:37:42.475Z,5.10
2018-06-12T20:40:15.467Z,5.20
2018-06-12T20:42:47.005Z,4.80
2018-06-12T20:45:19.343Z,4.80
2018-06-12T20:47:51.730Z,4.93
2018-06-12T20:50:22.926Z,4.53
2018-06-12T20:52:55.600Z,4.37
2018-06-12T20:55:27.680Z,4.67
2018-06-12T20:58:00.432Z,4.50
2018-06-12T21:00:33.082Z,4.50
2018-06-12T21:03:04.566Z,4.50
2018-06-12T21:05:36.833Z,4.60
2018-06-12T21:08:09.180Z,4.10
2018-06-12T21:10:40.944Z,4.57
2018-06-12T21:13:12.378Z,4.87
2018-06-12T21:15:44.738Z,4.17
2018-06-12T21:18:16.260Z,4.90
2018-06-12T21:20:47.712Z,5.23
2018-06-12T21:23:19.818Z,4.50
2018-06-12T21:25:51.856Z,5.13
2018-06-12T21:28:23.147Z,5.13
2018-06-12T21:30:54.422Z,4.83
2018-06-12T21:33:26.672Z,5.33
2018-06-12T21:35:58.616Z,5.00
2018-06-12T21:38:30.221Z,4.90
2018-06-12T21:41:02.284Z,5.67
2018-06-12T21:43:34.810Z,4.80
2018-06-12T21:46:07.646Z,4.67
2018-06-12T21:48:39.146Z,5.10
2018-06-12T21:51:10.396Z,4.70
2018-06-12T21:53:42.342Z,4.80
2018-06-12T21:56:14.296Z,4.80
2018-06-12T21:58:45.417Z,5.37
2018-06-12T22:01:16.758Z,4.87
2018-06-12T22:03:48.436Z,4.97
2018-06-12T22:06:20.172Z,5.03
2018-06-12T22:08:51.492Z,4.53
2018-06-12T22:11:23.487Z,4.50
2018-06-12T22:13:55.528Z,4.50
2018-06-12T22:16:26.874Z,4.57
2018-06-12T22:18:58.464Z,4.73
2018-06-12T22:21:30.584Z,5.07
2018-06-12T22:24:02.515Z,4.60
2018-06-12T22:26:33.668Z,5.40
2018-06-12T22:29:04.990Z,4.77
2018-06-12T22:31:36.809Z,5.17
2018-06-12T22:34:08.744Z,4.77
2018-06-12T22:36:40.033Z,5.13
2018-06-12T22:39:11.359Z,5.17
2018-06-12T22:41:44.088Z,5.50
2018-06-12T22:44:15.460Z,5.47
2018-06-12T22:46:47.199Z,4.77
2018-06-12T22:49:19.200Z,4.77
2018-06-12T22:51:51.204Z,4.70
2018-06-12T22:54:24.127Z,5.10
2018-06-12T22:56:55.530Z,4.77
2018-06-12T22:59:27.466Z,5.07
2018-06-12T23:01:59.501Z,5.43
2018-06-12T23:04:31.418Z,4.70
2018-06-12T23:07:02.324Z,4.97
2018-06-12T23:09:34.878Z,4.67
2018-06-12T23:12:06.731Z,4.87
2018-06-12T23:14:37.986Z,5.10
2018-06-12T23:17:10.571Z,4.77
2018-06-12T23:19:53.476Z,4.10
2018-06-12T23:22:23.632Z,4.57
2018-06-12T23:24:54.578Z,4.37
2018-06-12T23:27:26.598Z,4.20
2018-06-12T23:29:58.260Z,4.30
2018-06-12T23:32:29.557Z,5.07
2018-06-12T23:35:00.812Z,4.07
2018-06-12T23:37:33.385Z,4.03
2018-06-12T23:40:05.338Z,4.30
2018-06-12T23:42:36.741Z,4.03
2018-06-12T23:45:08.603Z,3.93
2018-06-12T23:47:40.593Z,4.00
2018-06-12T23:50:12.169Z,4.07
2018-06-12T23:52:43.415Z,4.20
2018-06-12T23:55:15.373Z,3.27
2018-06-12T23:57:47.236Z,3.90
